sensor_id;sensor_type;location;lat;lon;timestamp;P1;durP1;ratioP1;P2;durP2;ratioP2
74369;SDS011;71062;44.520;11.342;2024-03-06T00:02:25;6.35;;;1.17;;
74369;SDS011;71062;44.520;11.342;2024-03-06T00:04:50;3.85;;;0.85;;
74369;SDS011;71062;44.520;11.342;2024-03-06T00:07:16;7.28;;;0.82;;
74369;SDS011;71062;44.520;11.342;2024-03-06T00:09:41;3.40;;;1.05;;
74369;SDS011;71062;44.520;11.342;2024-03-06T00:12:07;3.17;;;0.70;;
74369;SDS011;71062;44.520;11.342;2024-03-06T00:14:33;3.17;;;1.63;;
74369;SDS011;71062;44.520;11.342;2024-03-06T00:17:01;4.35;;;0.60;;
74369;SDS011;71062;44.520;11.342;2024-03-06T00:19:28;6.00;;;0.90;;
74369;SDS011;71062;44.520;11.342;2024-03-06T00:21:53;7.67;;;1.00;;
74369;SDS011;71062;44.520;11.342;2024-03-06T00:24:19;6.43;;;0.80;;
74369;SDS011;71062;44.520;11.342;2024-03-06T00:26:44;8.13;;;0.75;;
74369;SDS011;71062;44.520;11.342;2024-03-06T00:29:10;3.42;;;0.60;;
74369;SDS011;71062;44.520;11.342;2024-03-06T00:31:36;7.38;;;0.70;;
74369;SDS011;71062;44.520;11.342;2024-03-06T00:34:01;5.45;;;1.00;;
74369;SDS011;71062;44.520;11.342;2024-03-06T00:36:27;8.38;;;1.05;;
74369;SDS011;71062;44.520;11.342;2024-03-06T00:38:52;12.55;;;1.42;;
74369;SDS011;71062;44.520;11.342;2024-03-06T00:41:18;4.22;;;0.82;;
74369;SDS011;71062;44.520;11.342;2024-03-06T00:43:44;4.25;;;0.63;;
74369;SDS011;71062;44.520;11.342;2024-03-06T00:46:10;3.33;;;0.80;;
74369;SDS011;71062;44.520;11.342;2024-03-06T00:48:35;5.22;;;0.93;;
74369;SDS011;71062;44.520;11.342;2024-03-06T00:51:01;2.88;;;0.52;;
74369;SDS011;71062;44.520;11.342;2024-03-06T00:53:27;7.57;;;1.00;;
74369;SDS011;71062;44.520;11.342;2024-03-06T00:55:52;3.00;;;0.80;;
74369;SDS011;71062;44.520;11.342;2024-03-06T00:58:21;4.60;;;0.63;;
74369;SDS011;71062;44.520;11.342;2024-03-06T01:00:46;6.78;;;0.82;;
74369;SDS011;71062;44.520;11.342;2024-03-06T01:03:12;6.50;;;0.60;;
74369;SDS011;71062;44.520;11.342;2024-03-06T01:05:37;7.20;;;0.70;;
74369;SDS011;71062;44.520;11.342;2024-03-06T01:08:02;2.80;;;0.50;;
74369;SDS011;71062;44.520;11.342;2024-03-06T01:10:28;1.55;;;0.40;;
74369;SDS011;71062;44.520;11.342;2024-03-06T01:12:53;2.88;;;0.63;;
74369;SDS011;71062;44.520;11.342;2024-03-06T01:15:19;3.67;;;0.60;;
74369;SDS011;71062;44.520;11.342;2024-03-06T01:17:44;3.88;;;0.47;;
74369;SDS011;71062;44.520;11.342;2024-03-06T01:20:09;4.47;;;0.60;;
74369;SDS011;71062;44.520;11.342;2024-03-06T01:22:35;8.40;;;0.73;;
74369;SDS011;71062;44.520;11.342;2024-03-06T01:25:00;4.35;;;0.75;;
74369;SDS011;71062;44.520;11.342;2024-03-06T01:27:26;4.35;;;0.80;;
74369;SDS011;71062;44.520;11.342;2024-03-06T01:29:52;5.15;;;0.35;;
74369;SDS011;71062;44.520;11.342;2024-03-06T01:32:17;4.20;;;0.70;;
74369;SDS011;71062;44.520;11.342;2024-03-06T01:34:42;4.30;;;0.50;;
74369;SDS011;71062;44.520;11.342;2024-03-06T01:37:08;5.88;;;0.88;;
74369;SDS011;71062;44.520;11.342;2024-03-06T01:39:34;5.70;;;0.60;;
74369;SDS011;71062;44.520;11.342;2024-03-06T01:42:00;6.35;;;0.70;;
74369;SDS011;71062;44.520;11.342;2024-03-06T01:44:26;3.22;;;0.50;;
74369;SDS011;71062;44.520;11.342;2024-03-06T01:46:51;1.05;;;0.40;;
74369;SDS011;71062;44.520;11.342;2024-03-06T01:49:17;6.25;;;0.90;;
74369;SDS011;71062;44.520;11.342;2024-03-06T01:51:42;6.88;;;0.60;;
74369;SDS011;71062;44.520;11.342;2024-03-06T01:56:35;2.80;;;0.47;;
74369;SDS011;71062;44.520;11.342;2024-03-06T01:59:02;2.95;;;0.45;;
74369;SDS011;71062;44.520;11.342;2024-03-06T02:01:29;2.25;;;0.45;;
74369;SDS011;71062;44.520;11.342;2024-03-06T02:03:55;3.10;;;0.52;;
74369;SDS011;71062;44.520;11.342;2024-03-06T02:06:21;2.35;;;0.40;;
74369;SDS011;71062;44.520;11.342;2024-03-06T02:08:46;3.78;;;0.65;;
74369;SDS011;71062;44.520;11.342;2024-03-06T02:11:12;4.63;;;0.60;;
74369;SDS011;71062;44.520;11.342;2024-03-06T02:13:41;5.22;;;0.65;;
74369;SDS011;71062;44.520;11.342;2024-03-06T02:16:07;3.55;;;0.50;;
74369;SDS011;71062;44.520;11.342;2024-03-06T02:18:33;4.72;;;0.70;;
74369;SDS011;71062;44.520;11.342;2024-03-06T02:20:58;3.15;;;0.50;;
74369;SDS011;71062;44.520;11.342;2024-03-06T02:23:24;2.60;;;0.40;;
74369;SDS011;71062;44.520;11.342;2024-03-06T02:25:49;3.50;;;0.55;;
74369;SDS011;71062;44.520;11.342;2024-03-06T02:28:15;4.20;;;0.73;;
74369;SDS011;71062;44.520;11.342;2024-03-06T02:30:42;2.97;;;0.70;;
74369;SDS011;71062;44.520;11.342;2024-03-06T02:33:07;6.18;;;1.08;;
74369;SDS011;71062;44.520;11.342;2024-03-06T02:35:33;5.78;;;0.77;;
74369;SDS011;71062;44.520;11.342;2024-03-06T02:38:01;3.20;;;0.50;;
74369;SDS011;71062;44.520;11.342;2024-03-06T02:40:28;2.63;;;0.40;;
74369;SDS011;71062;44.520;11.342;2024-03-06T02:42:56;8.15;;;0.65;;
74369;SDS011;71062;44.520;11.342;2024-03-06T02:45:21;8.57;;;1.07;;
74369;SDS011;71062;44.520;11.342;2024-03-06T02:47:47;3.72;;;0.50;;
74369;SDS011;71062;44.520;11.342;2024-03-06T02:50:12;2.95;;;0.50;;
74369;SDS011;71062;44.520;11.342;2024-03-06T02:52:38;5.60;;;0.60;;
74369;SDS011;71062;44.520;11.342;2024-03-06T02:55:04;3.47;;;0.50;;
74369;SDS011;71062;44.520;11.342;2024-03-06T02:57:29;5.97;;;0.65;;
74369;SDS011;71062;44.520;11.342;2024-03-06T02:59:56;2.87;;;0.40;;
74369;SDS011;71062;44.520;11.342;2024-03-06T03:02:21;5.97;;;0.60;;
74369;SDS011;71062;44.520;11.342;2024-03-06T03:04:46;4.85;;;0.70;;
74369;SDS011;71062;44.520;11.342;2024-03-06T03:07:12;4.28;;;0.70;;
74369;SDS011;71062;44.520;11.342;2024-03-06T03:09:37;4.85;;;0.28;;
74369;SDS011;71062;44.520;11.342;2024-03-06T03:12:05;6.13;;;0.63;;
74369;SDS011;71062;44.520;11.342;2024-03-06T03:14:30;3.40;;;0.68;;
74369;SDS011;71062;44.520;11.342;2024-03-06T03:16:55;6.20;;;0.73;;
74369;SDS011;71062;44.520;11.342;2024-03-06T03:19:21;5.38;;;0.73;;
74369;SDS011;71062;44.520;11.342;2024-03-06T03:21:46;5.53;;;0.65;;
74369;SDS011;71062;44.520;11.342;2024-03-06T03:24:12;2.28;;;0.63;;
74369;SDS011;71062;44.520;11.342;2024-03-06T03:26:37;3.03;;;0.70;;
74369;SDS011;71062;44.520;11.342;2024-03-06T03:29:03;3.60;;;0.60;;
74369;SDS011;71062;44.520;11.342;2024-03-06T03:31:28;3.55;;;0.80;;
74369;SDS011;71062;44.520;11.342;2024-03-06T03:33:54;3.42;;;0.88;;
74369;SDS011;71062;44.520;11.342;2024-03-06T03:36:19;6.07;;;0.60;;
74369;SDS011;71062;44.520;11.342;2024-03-06T03:38:44;3.85;;;0.80;;
74369;SDS011;71062;44.520;11.342;2024-03-06T03:41:10;5.00;;;0.70;;
74369;SDS011;71062;44.520;11.342;2024-03-06T03:43:38;8.18;;;0.73;;
74369;SDS011;71062;44.520;11.342;2024-03-06T03:46:04;4.65;;;0.98;;
74369;SDS011;71062;44.520;11.342;2024-03-06T03:48:30;8.80;;;1.02;;
74369;SDS011;71062;44.520;11.342;2024-03-06T03:50:55;10.65;;;1.38;;
74369;SDS011;71062;44.520;11.342;2024-03-06T03:53:21;7.07;;;0.70;;
74369;SDS011;71062;44.520;11.342;2024-03-06T03:55:47;4.38;;;0.95;;
74369;SDS011;71062;44.520;11.342;2024-03-06T03:58:12;12.90;;;0.70;;
74369;SDS011;71062;44.520;11.342;2024-03-06T04:00:38;2.15;;;0.50;;
74369;SDS011;71062;44.520;11.342;2024-03-06T04:03:03;0.28;;;0.08;;
74369;SDS011;71062;44.520;11.342;2024-03-06T04:05:29;1.77;;;0.28;;
74369;SDS011;71062;44.520;11.342;2024-03-06T04:07:56;3.15;;;0.60;;
74369;SDS011;71062;44.520;11.342;2024-03-06T04:10:22;3.47;;;0.43;;
74369;SDS011;71062;44.520;11.342;2024-03-06T04:12:48;1.95;;;0.40;;
74369;SDS011;71062;44.520;11.342;2024-03-06T04:15:14;5.38;;;0.63;;
74369;SDS011;71062;44.520;11.342;2024-03-06T04:17:39;3.03;;;0.38;;
74369;SDS011;71062;44.520;11.342;2024-03-06T04:20:06;1.48;;;0.50;;
74369;SDS011;71062;44.520;11.342;2024-03-06T04:22:33;3.03;;;0.80;;
74369;SDS011;71062;44.520;11.342;2024-03-06T04:24:58;1.95;;;0.40;;
74369;SDS011;71062;44.520;11.342;2024-03-06T04:27:24;6.78;;;0.80;;
74369;SDS011;71062;44.520;11.342;2024-03-06T04:29:50;4.45;;;0.57;;
74369;SDS011;71062;44.520;11.342;2024-03-06T04:32:16;2.20;;;0.40;;
74369;SDS011;71062;44.520;11.342;2024-03-06T04:34:41;3.15;;;0.50;;
74369;SDS011;71062;44.520;11.342;2024-03-06T04:37:07;3.42;;;0.40;;
74369;SDS011;71062;44.520;11.342;2024-03-06T04:39:33;3.15;;;0.40;;
74369;SDS011;71062;44.520;11.342;2024-03-06T04:41:58;3.75;;;0.57;;
74369;SDS011;71062;44.520;11.342;2024-03-06T04:44:24;6.22;;;0.55;;
74369;SDS011;71062;44.520;11.342;2024-03-06T04:46:50;5.07;;;0.50;;
74369;SDS011;71062;44.520;11.342;2024-03-06T04:49:15;1.45;;;0.32;;
74369;SDS011;71062;44.520;11.342;2024-03-06T04:51:41;2.70;;;0.45;;
74369;SDS011;71062;44.520;11.342;2024-03-06T04:54:06;3.30;;;0.30;;
74369;SDS011;71062;44.520;11.342;2024-03-06T04:56:32;5.22;;;0.75;;
74369;SDS011;71062;44.520;11.342;2024-03-06T04:58:57;3.65;;;0.40;;
74369;SDS011;71062;44.520;11.342;2024-03-06T05:01:27;4.88;;;0.63;;
74369;SDS011;71062;44.520;11.342;2024-03-06T05:03:54;3.72;;;0.68;;
74369;SDS011;71062;44.520;11.342;2024-03-06T05:06:20;4.40;;;0.43;;
74369;SDS011;71062;44.520;11.342;2024-03-06T05:08:45;8.27;;;0.75;;
74369;SDS011;71062;44.520;11.342;2024-03-06T05:11:11;3.42;;;0.63;;
74369;SDS011;71062;44.520;11.342;2024-03-06T05:13:37;2.78;;;0.75;;
74369;SDS011;71062;44.520;11.342;2024-03-06T05:16:03;2.60;;;0.47;;
74369;SDS011;71062;44.520;11.342;2024-03-06T05:18:28;6.30;;;0.63;;
74369;SDS011;71062;44.520;11.342;2024-03-06T05:20:54;4.28;;;0.90;;
74369;SDS011;71062;44.520;11.342;2024-03-06T05:23:19;4.03;;;0.60;;
74369;SDS011;71062;44.520;11.342;2024-03-06T05:25:45;11.00;;;1.00;;
74369;SDS011;71062;44.520;11.342;2024-03-06T05:28:10;4.45;;;0.90;;
74369;SDS011;71062;44.520;11.342;2024-03-06T05:30:36;2.90;;;0.40;;
74369;SDS011;71062;44.520;11.342;2024-03-06T05:33:02;4.47;;;0.57;;
74369;SDS011;71062;44.520;11.342;2024-03-06T05:35:27;3.03;;;0.63;;
74369;SDS011;71062;44.520;11.342;2024-03-06T05:37:53;6.28;;;0.93;;
74369;SDS011;71062;44.520;11.342;2024-03-06T05:40:18;3.88;;;0.95;;
74369;SDS011;71062;44.520;11.342;2024-03-06T05:42:44;3.17;;;0.68;;
74369;SDS011;71062;44.520;11.342;2024-03-06T05:45:09;5.18;;;1.08;;
74369;SDS011;71062;44.520;11.342;2024-03-06T05:47:37;5.68;;;0.93;;
74369;SDS011;71062;44.520;11.342;2024-03-06T05:50:03;5.75;;;1.35;;
74369;SDS011;71062;44.520;11.342;2024-03-06T05:52:32;3.38;;;1.20;;
74369;SDS011;71062;44.520;11.342;2024-03-06T05:54:59;6.32;;;1.33;;
74369;SDS011;71062;44.520;11.342;2024-03-06T05:57:25;3.00;;;0.73;;
74369;SDS011;71062;44.520;11.342;2024-03-06T05:59:50;4.25;;;1.30;;
74369;SDS011;71062;44.520;11.342;2024-03-06T06:02:15;5.68;;;1.35;;
74369;SDS011;71062;44.520;11.342;2024-03-06T06:04:45;4.85;;;0.82;;
74369;SDS011;71062;44.520;11.342;2024-03-06T06:07:10;7.57;;;0.82;;
74369;SDS011;71062;44.520;11.342;2024-03-06T06:09:36;6.18;;;1.55;;
74369;SDS011;71062;44.520;11.342;2024-03-06T06:12:01;8.52;;;1.52;;
74369;SDS011;71062;44.520;11.342;2024-03-06T06:14:27;5.13;;;1.38;;
74369;SDS011;71062;44.520;11.342;2024-03-06T06:16:56;9.68;;;1.70;;
74369;SDS011;71062;44.520;11.342;2024-03-06T06:19:22;6.20;;;1.70;;
74369;SDS011;71062;44.520;11.342;2024-03-06T06:21:47;4.88;;;1.48;;
74369;SDS011;71062;44.520;11.342;2024-03-06T06:24:13;6.55;;;1.50;;
74369;SDS011;71062;44.520;11.342;2024-03-06T06:26:39;4.50;;;1.23;;
74369;SDS011;71062;44.520;11.342;2024-03-06T06:29:04;5.40;;;1.20;;
74369;SDS011;71062;44.520;11.342;2024-03-06T06:31:30;9.52;;;1.50;;
74369;SDS011;71062;44.520;11.342;2024-03-06T06:33:55;6.75;;;1.63;;
74369;SDS011;71062;44.520;11.342;2024-03-06T06:36:21;4.95;;;1.33;;
74369;SDS011;71062;44.520;11.342;2024-03-06T06:38:47;6.15;;;1.40;;
74369;SDS011;71062;44.520;11.342;2024-03-06T06:41:13;9.95;;;1.60;;
74369;SDS011;71062;44.520;11.342;2024-03-06T06:43:38;4.10;;;1.30;;
74369;SDS011;71062;44.520;11.342;2024-03-06T06:46:05;6.32;;;1.88;;
74369;SDS011;71062;44.520;11.342;2024-03-06T06:48:31;6.75;;;1.63;;
74369;SDS011;71062;44.520;11.342;2024-03-06T06:51:01;8.75;;;1.52;;
74369;SDS011;71062;44.520;11.342;2024-03-06T06:53:32;7.68;;;1.20;;
74369;SDS011;71062;44.520;11.342;2024-03-06T06:55:58;5.07;;;0.82;;
74369;SDS011;71062;44.520;11.342;2024-03-06T06:58:24;5.40;;;1.10;;
74369;SDS011;71062;44.520;11.342;2024-03-06T07:00:52;2.88;;;0.70;;
74369;SDS011;71062;44.520;11.342;2024-03-06T07:03:17;8.10;;;0.95;;
74369;SDS011;71062;44.520;11.342;2024-03-06T07:05:43;2.95;;;0.50;;
74369;SDS011;71062;44.520;11.342;2024-03-06T07:08:08;5.45;;;0.63;;
74369;SDS011;71062;44.520;11.342;2024-03-06T07:10:34;7.22;;;1.00;;
74369;SDS011;71062;44.520;11.342;2024-03-06T07:13:01;5.47;;;0.80;;
74369;SDS011;71062;44.520;11.342;2024-03-06T07:15:28;4.10;;;0.80;;
74369;SDS011;71062;44.520;11.342;2024-03-06T07:17:54;1.90;;;0.40;;
74369;SDS011;71062;44.520;11.342;2024-03-06T07:20:19;3.30;;;0.43;;
74369;SDS011;71062;44.520;11.342;2024-03-06T07:22:44;2.50;;;0.32;;
74369;SDS011;71062;44.520;11.342;2024-03-06T07:25:10;4.32;;;0.30;;
74369;SDS011;71062;44.520;11.342;2024-03-06T07:27:35;6.47;;;0.70;;
74369;SDS011;71062;44.520;11.342;2024-03-06T07:30:01;6.07;;;0.40;;
74369;SDS011;71062;44.520;11.342;2024-03-06T07:32:26;2.15;;;0.30;;
74369;SDS011;71062;44.520;11.342;2024-03-06T07:34:52;4.10;;;0.47;;
74369;SDS011;71062;44.520;11.342;2024-03-06T07:37:17;4.30;;;0.50;;
74369;SDS011;71062;44.520;11.342;2024-03-06T07:39:44;1.55;;;0.30;;
74369;SDS011;71062;44.520;11.342;2024-03-06T07:42:10;7.85;;;0.57;;
74369;SDS011;71062;44.520;11.342;2024-03-06T07:44:35;4.32;;;0.60;;
74369;SDS011;71062;44.520;11.342;2024-03-06T07:47:01;2.15;;;0.57;;
74369;SDS011;71062;44.520;11.342;2024-03-06T07:49:26;3.42;;;0.47;;
74369;SDS011;71062;44.520;11.342;2024-03-06T07:51:52;2.92;;;0.40;;
74369;SDS011;71062;44.520;11.342;2024-03-06T07:54:18;12.02;;;1.00;;
74369;SDS011;71062;44.520;11.342;2024-03-06T07:56:44;1.65;;;0.40;;
74369;SDS011;71062;44.520;11.342;2024-03-06T07:59:09;3.38;;;0.77;;
74369;SDS011;71062;44.520;11.342;2024-03-06T08:01:37;1.90;;;0.50;;
74369;SDS011;71062;44.520;11.342;2024-03-06T08:04:03;6.82;;;0.75;;
74369;SDS011;71062;44.520;11.342;2024-03-06T08:06:28;1.85;;;0.50;;
74369;SDS011;71062;44.520;11.342;2024-03-06T08:08:54;1.70;;;0.28;;
74369;SDS011;71062;44.520;11.342;2024-03-06T08:11:20;1.17;;;0.15;;
74369;SDS011;71062;44.520;11.342;2024-03-06T08:13:46;4.55;;;0.73;;
74369;SDS011;71062;44.520;11.342;2024-03-06T08:16:12;2.25;;;0.43;;
74369;SDS011;71062;44.520;11.342;2024-03-06T08:18:37;1.90;;;0.32;;
74369;SDS011;71062;44.520;11.342;2024-03-06T08:21:03;5.70;;;0.60;;
74369;SDS011;71062;44.520;11.342;2024-03-06T08:23:30;4.13;;;0.60;;
74369;SDS011;71062;44.520;11.342;2024-03-06T08:25:56;3.05;;;0.55;;
74369;SDS011;71062;44.520;11.342;2024-03-06T08:28:21;2.28;;;0.60;;
74369;SDS011;71062;44.520;11.342;2024-03-06T08:30:47;2.80;;;0.40;;
74369;SDS011;71062;44.520;11.342;2024-03-06T08:33:12;3.00;;;0.30;;
74369;SDS011;71062;44.520;11.342;2024-03-06T08:35:39;3.15;;;0.60;;
74369;SDS011;71062;44.520;11.342;2024-03-06T08:38:05;4.88;;;0.70;;
74369;SDS011;71062;44.520;11.342;2024-03-06T08:40:31;4.65;;;0.32;;
74369;SDS011;71062;44.520;11.342;2024-03-06T08:42:57;1.95;;;0.52;;
74369;SDS011;71062;44.520;11.342;2024-03-06T08:45:22;1.27;;;0.13;;
74369;SDS011;71062;44.520;11.342;2024-03-06T08:47:49;3.35;;;0.25;;
74369;SDS011;71062;44.520;11.342;2024-03-06T08:50:14;1.77;;;0.35;;
74369;SDS011;71062;44.520;11.342;2024-03-06T08:52:40;1.85;;;0.20;;
74369;SDS011;71062;44.520;11.342;2024-03-06T08:55:06;0.77;;;0.30;;
74369;SDS011;71062;44.520;11.342;2024-03-06T08:57:32;2.85;;;0.63;;
74369;SDS011;71062;44.520;11.342;2024-03-06T08:59:58;1.67;;;0.45;;
74369;SDS011;71062;44.520;11.342;2024-03-06T09:02:24;2.22;;;0.17;;
74369;SDS011;71062;44.520;11.342;2024-03-06T09:04:50;1.90;;;0.50;;
74369;SDS011;71062;44.520;11.342;2024-03-06T09:07:17;0.20;;;0.10;;
74369;SDS011;71062;44.520;11.342;2024-03-06T09:09:42;1.38;;;0.22;;
74369;SDS011;71062;44.520;11.342;2024-03-06T09:12:08;1.05;;;0.32;;
74369;SDS011;71062;44.520;11.342;2024-03-06T09:14:37;2.65;;;0.70;;
74369;SDS011;71062;44.520;11.342;2024-03-06T09:17:03;1.80;;;0.30;;
74369;SDS011;71062;44.520;11.342;2024-03-06T09:19:30;1.85;;;0.55;;
74369;SDS011;71062;44.520;11.342;2024-03-06T09:21:56;3.03;;;0.28;;
74369;SDS011;71062;44.520;11.342;2024-03-06T09:24:22;2.22;;;0.20;;
74369;SDS011;71062;44.520;11.342;2024-03-06T09:26:51;2.92;;;0.50;;
74369;SDS011;71062;44.520;11.342;2024-03-06T09:29:17;1.85;;;0.40;;
74369;SDS011;71062;44.520;11.342;2024-03-06T09:31:43;1.50;;;0.20;;
74369;SDS011;71062;44.520;11.342;2024-03-06T09:34:08;4.68;;;1.25;;
74369;SDS011;71062;44.520;11.342;2024-03-06T09:36:41;4.57;;;1.25;;
74369;SDS011;71062;44.520;11.342;2024-03-06T09:39:10;5.55;;;0.90;;
74369;SDS011;71062;44.520;11.342;2024-03-06T09:41:36;6.28;;;2.22;;
74369;SDS011;71062;44.520;11.342;2024-03-06T09:44:01;5.22;;;2.30;;
74369;SDS011;71062;44.520;11.342;2024-03-06T09:46:28;5.32;;;2.20;;
74369;SDS011;71062;44.520;11.342;2024-03-06T09:48:54;3.53;;;1.70;;
74369;SDS011;71062;44.520;11.342;2024-03-06T09:51:20;6.53;;;1.88;;
74369;SDS011;71062;44.520;11.342;2024-03-06T09:53:46;3.67;;;2.10;;
74369;SDS011;71062;44.520;11.342;2024-03-06T09:56:14;6.72;;;2.90;;
74369;SDS011;71062;44.520;11.342;2024-03-06T09:58:40;8.73;;;2.85;;
74369;SDS011;71062;44.520;11.342;2024-03-06T10:01:05;7.18;;;2.30;;
74369;SDS011;71062;44.520;11.342;2024-03-06T10:03:36;5.47;;;2.15;;
74369;SDS011;71062;44.520;11.342;2024-03-06T10:06:02;5.07;;;2.17;;
74369;SDS011;71062;44.520;11.342;2024-03-06T10:08:27;5.68;;;2.33;;
74369;SDS011;71062;44.520;11.342;2024-03-06T10:10:53;7.13;;;2.60;;
74369;SDS011;71062;44.520;11.342;2024-03-06T10:13:22;6.10;;;2.30;;
74369;SDS011;71062;44.520;11.342;2024-03-06T10:16:03;7.47;;;2.33;;
74369;SDS011;71062;44.520;11.342;2024-03-06T10:18:30;7.50;;;2.60;;
74369;SDS011;71062;44.520;11.342;2024-03-06T10:20:56;5.85;;;2.50;;
74369;SDS011;71062;44.520;11.342;2024-03-06T10:23:22;4.38;;;2.20;;
74369;SDS011;71062;44.520;11.342;2024-03-06T10:25:48;4.20;;;1.67;;
74369;SDS011;71062;44.520;11.342;2024-03-06T10:28:20;5.85;;;1.90;;
74369;SDS011;71062;44.520;11.342;2024-03-06T10:30:47;6.97;;;1.77;;
74369;SDS011;71062;44.520;11.342;2024-03-06T10:33:14;3.67;;;1.92;;
74369;SDS011;71062;44.520;11.342;2024-03-06T10:35:41;6.15;;;1.98;;
74369;SDS011;71062;44.520;11.342;2024-03-06T10:38:06;3.67;;;1.63;;
74369;SDS011;71062;44.520;11.342;2024-03-06T10:40:33;4.72;;;2.08;;
74369;SDS011;71062;44.520;11.342;2024-03-06T10:42:59;7.20;;;2.20;;
74369;SDS011;71062;44.520;11.342;2024-03-06T10:45:34;5.43;;;2.45;;
74369;SDS011;71062;44.520;11.342;2024-03-06T10:48:04;9.85;;;2.45;;
74369;SDS011;71062;44.520;11.342;2024-03-06T10:50:29;5.18;;;2.50;;
74369;SDS011;71062;44.520;11.342;2024-03-06T10:52:55;5.90;;;2.30;;
74369;SDS011;71062;44.520;11.342;2024-03-06T10:55:21;6.30;;;2.47;;
74369;SDS011;71062;44.520;11.342;2024-03-06T10:57:48;5.63;;;2.30;;
74369;SDS011;71062;44.520;11.342;2024-03-06T11:00:14;5.82;;;2.00;;
74369;SDS011;71062;44.520;11.342;2024-03-06T11:02:46;4.97;;;1.60;;
74369;SDS011;71062;44.520;11.342;2024-03-06T11:05:15;4.20;;;1.42;;
74369;SDS011;71062;44.520;11.342;2024-03-06T11:07:41;5.40;;;1.17;;
74369;SDS011;71062;44.520;11.342;2024-03-06T11:10:06;3.28;;;1.23;;
74369;SDS011;71062;44.520;11.342;2024-03-06T11:12:35;4.38;;;1.35;;
74369;SDS011;71062;44.520;11.342;2024-03-06T11:15:08;6.10;;;1.50;;
74369;SDS011;71062;44.520;11.342;2024-03-06T11:17:34;4.97;;;1.40;;
74369;SDS011;71062;44.520;11.342;2024-03-06T11:25:08;4.10;;;1.25;;
74369;SDS011;71062;44.520;11.342;2024-03-06T11:27:49;4.75;;;1.20;;
74369;SDS011;71062;44.520;11.342;2024-03-06T11:30:19;6.13;;;1.30;;
74369;SDS011;71062;44.520;11.342;2024-03-06T11:32:58;4.63;;;0.95;;
74369;SDS011;71062;44.520;11.342;2024-03-06T11:35:27;4.75;;;0.95;;
74369;SDS011;71062;44.520;11.342;2024-03-06T11:37:53;5.80;;;1.27;;
74369;SDS011;71062;44.520;11.342;2024-03-06T11:40:25;4.32;;;1.08;;
74369;SDS011;71062;44.520;11.342;2024-03-06T11:42:50;4.05;;;0.95;;
74369;SDS011;71062;44.520;11.342;2024-03-06T11:45:17;4.57;;;0.80;;
74369;SDS011;71062;44.520;11.342;2024-03-06T11:50:47;7.75;;;0.88;;
74369;SDS011;71062;44.520;11.342;2024-03-06T11:53:13;3.00;;;0.70;;
74369;SDS011;71062;44.520;11.342;2024-03-06T11:55:38;3.25;;;0.85;;
74369;SDS011;71062;44.520;11.342;2024-03-06T11:58:04;5.03;;;1.08;;
74369;SDS011;71062;44.520;11.342;2024-03-06T12:00:30;2.50;;;1.17;;
74369;SDS011;71062;44.520;11.342;2024-03-06T12:02:55;4.53;;;1.23;;
74369;SDS011;71062;44.520;11.342;2024-03-06T12:05:22;3.55;;;1.08;;
74369;SDS011;71062;44.520;11.342;2024-03-06T12:07:48;2.35;;;0.88;;
74369;SDS011;71062;44.520;11.342;2024-03-06T12:10:15;5.35;;;1.00;;
74369;SDS011;71062;44.520;11.342;2024-03-06T12:12:41;7.38;;;1.60;;
74369;SDS011;71062;44.520;11.342;2024-03-06T12:15:09;4.57;;;1.50;;
74369;SDS011;71062;44.520;11.342;2024-03-06T12:17:41;5.43;;;1.25;;
74369;SDS011;71062;44.520;11.342;2024-03-06T12:20:11;3.70;;;1.08;;
74369;SDS011;71062;44.520;11.342;2024-03-06T12:22:43;3.17;;;1.45;;
74369;SDS011;71062;44.520;11.342;2024-03-06T12:25:08;4.90;;;1.08;;
74369;SDS011;71062;44.520;11.342;2024-03-06T12:27:34;4.43;;;1.10;;
74369;SDS011;71062;44.520;11.342;2024-03-06T12:29:59;2.92;;;1.13;;
74369;SDS011;71062;44.520;11.342;2024-03-06T12:32:25;4.15;;;1.20;;
74369;SDS011;71062;44.520;11.342;2024-03-06T12:34:57;3.30;;;1.05;;
74369;SDS011;71062;44.520;11.342;2024-03-06T12:37:29;2.85;;;0.85;;
74369;SDS011;71062;44.520;11.342;2024-03-06T12:39:57;3.28;;;0.77;;
74369;SDS011;71062;44.520;11.342;2024-03-06T12:42:23;2.47;;;0.73;;
74369;SDS011;71062;44.520;11.342;2024-03-06T12:44:49;3.47;;;1.00;;
74369;SDS011;71062;44.520;11.342;2024-03-06T12:47:15;2.85;;;1.20;;
74369;SDS011;71062;44.520;11.342;2024-03-06T12:49:40;3.13;;;1.13;;
74369;SDS011;71062;44.520;11.342;2024-03-06T12:52:05;4.78;;;1.77;;
74369;SDS011;71062;44.520;11.342;2024-03-06T12:54:31;4.95;;;1.73;;
74369;SDS011;71062;44.520;11.342;2024-03-06T12:56:56;2.75;;;1.35;;
74369;SDS011;71062;44.520;11.342;2024-03-06T12:59:22;5.72;;;1.30;;
74369;SDS011;71062;44.520;11.342;2024-03-06T13:01:47;2.10;;;0.80;;
74369;SDS011;71062;44.520;11.342;2024-03-06T13:04:13;4.75;;;1.35;;
74369;SDS011;71062;44.520;11.342;2024-03-06T13:06:38;5.18;;;1.45;;
74369;SDS011;71062;44.520;11.342;2024-03-06T13:09:05;6.55;;;1.63;;
74369;SDS011;71062;44.520;11.342;2024-03-06T13:11:31;4.85;;;1.20;;
74369;SDS011;71062;44.520;11.342;2024-03-06T13:13:57;3.20;;;1.10;;
74369;SDS011;71062;44.520;11.342;2024-03-06T13:16:23;2.08;;;0.70;;
74369;SDS011;71062;44.520;11.342;2024-03-06T13:18:48;2.15;;;0.60;;
74369;SDS011;71062;44.520;11.342;2024-03-06T13:21:14;2.05;;;0.70;;
74369;SDS011;71062;44.520;11.342;2024-03-06T13:23:40;4.38;;;0.90;;
74369;SDS011;71062;44.520;11.342;2024-03-06T13:26:05;1.98;;;0.77;;
74369;SDS011;71062;44.520;11.342;2024-03-06T13:28:31;2.13;;;0.90;;
74369;SDS011;71062;44.520;11.342;2024-03-06T13:30:56;4.47;;;1.10;;
74369;SDS011;71062;44.520;11.342;2024-03-06T13:33:22;3.63;;;0.80;;
74369;SDS011;71062;44.520;11.342;2024-03-06T13:35:48;2.63;;;1.20;;
74369;SDS011;71062;44.520;11.342;2024-03-06T13:38:14;2.42;;;0.63;;
74369;SDS011;71062;44.520;11.342;2024-03-06T13:40:39;4.20;;;0.95;;
74369;SDS011;71062;44.520;11.342;2024-03-06T13:43:05;2.70;;;0.80;;
74369;SDS011;71062;44.520;11.342;2024-03-06T13:45:31;2.10;;;0.40;;
74369;SDS011;71062;44.520;11.342;2024-03-06T13:47:57;2.08;;;0.55;;
74369;SDS011;71062;44.520;11.342;2024-03-06T13:50:22;3.10;;;0.70;;
74369;SDS011;71062;44.520;11.342;2024-03-06T13:52:50;4.38;;;1.10;;
74369;SDS011;71062;44.520;11.342;2024-03-06T13:55:16;2.95;;;0.88;;
74369;SDS011;71062;44.520;11.342;2024-03-06T13:57:42;3.92;;;1.20;;
74369;SDS011;71062;44.520;11.342;2024-03-06T14:00:08;4.40;;;1.17;;
74369;SDS011;71062;44.520;11.342;2024-03-06T14:02:43;2.28;;;1.00;;
74369;SDS011;71062;44.520;11.342;2024-03-06T14:05:11;2.55;;;1.20;;
74369;SDS011;71062;44.520;11.342;2024-03-06T14:07:37;2.08;;;1.00;;
74369;SDS011;71062;44.520;11.342;2024-03-06T14:10:03;2.95;;;1.30;;
74369;SDS011;71062;44.520;11.342;2024-03-06T14:12:29;3.72;;;1.02;;
74369;SDS011;71062;44.520;11.342;2024-03-06T14:14:55;2.03;;;0.90;;
74369;SDS011;71062;44.520;11.342;2024-03-06T14:17:20;2.95;;;0.93;;
74369;SDS011;71062;44.520;11.342;2024-03-06T14:19:46;3.60;;;1.00;;
74369;SDS011;71062;44.520;11.342;2024-03-06T14:22:11;2.85;;;1.00;;
74369;SDS011;71062;44.520;11.342;2024-03-06T14:24:37;2.88;;;0.98;;
74369;SDS011;71062;44.520;11.342;2024-03-06T14:27:03;1.73;;;0.88;;
74369;SDS011;71062;44.520;11.342;2024-03-06T14:29:29;2.65;;;0.95;;
74369;SDS011;71062;44.520;11.342;2024-03-06T14:31:55;5.20;;;1.25;;
74369;SDS011;71062;44.520;11.342;2024-03-06T14:34:20;2.30;;;0.80;;
74369;SDS011;71062;44.520;11.342;2024-03-06T14:36:48;1.20;;;0.73;;
74369;SDS011;71062;44.520;11.342;2024-03-06T14:39:14;3.08;;;1.00;;